sensor_id;sensor_type;location;lat;lon;timestamp;P1;durP1;ratioP1;P2;durP2;ratioP2
54919;SDS011;63804;53.120;8.764;2023-05-07T00:02:15;18.17;;;11.75;;
54919;SDS011;63804;53.120;8.764;2023-05-07T00:04:42;17.60;;;12.73;;
54919;SDS011;63804;53.120;8.764;2023-05-07T00:07:10;15.13;;;11.77;;
54919;SDS011;63804;53.120;8.764;2023-05-07T00:09:37;19.17;;;12.77;;
54919;SDS011;63804;53.120;8.764;2023-05-07T00:12:04;17.00;;;12.45;;
54919;SDS011;63804;53.120;8.764;2023-05-07T00:14:32;18.05;;;12.10;;
54919;SDS011;63804;53.120;8.764;2023-05-07T00:16:59;17.27;;;12.30;;
54919;SDS011;63804;53.120;8.764;2023-05-07T00:19:26;17.55;;;12.13;;
54919;SDS011;63804;53.120;8.764;2023-05-07T00:21:53;16.35;;;11.85;;
54919;SDS011;63804;53.120;8.764;2023-05-07T00:24:23;16.10;;;11.93;;
54919;SDS011;63804;53.120;8.764;2023-05-07T00:26:50;15.45;;;11.75;;
54919;SDS011;63804;53.120;8.764;2023-05-07T00:29:17;17.95;;;11.80;;
54919;SDS011;63804;53.120;8.764;2023-05-07T00:31:48;16.30;;;12.18;;
54919;SDS011;63804;53.120;8.764;2023-05-07T00:34:17;15.75;;;11.35;;
54919;SDS011;63804;53.120;8.764;2023-05-07T00:36:44;15.02;;;12.38;;
54919;SDS011;63804;53.120;8.764;2023-05-07T00:39:11;15.25;;;11.55;;
54919;SDS011;63804;53.120;8.764;2023-05-07T00:41:39;16.17;;;11.50;;
54919;SDS011;63804;53.120;8.764;2023-05-07T00:44:06;14.90;;;11.90;;
54919;SDS011;63804;53.120;8.764;2023-05-07T00:46:33;15.10;;;11.23;;
54919;SDS011;63804;53.120;8.764;2023-05-07T00:49:00;17.75;;;11.60;;
54919;SDS011;63804;53.120;8.764;2023-05-07T00:51:29;15.63;;;11.85;;
54919;SDS011;63804;53.120;8.764;2023-05-07T00:53:57;14.77;;;10.95;;
54919;SDS011;63804;53.120;8.764;2023-05-07T00:56:24;16.45;;;11.88;;
54919;SDS011;63804;53.120;8.764;2023-05-07T00:58:53;14.85;;;11.27;;
54919;SDS011;63804;53.120;8.764;2023-05-07T01:01:20;15.73;;;12.27;;
54919;SDS011;63804;53.120;8.764;2023-05-07T01:03:48;15.48;;;11.65;;
54919;SDS011;63804;53.120;8.764;2023-05-07T01:06:15;16.25;;;12.27;;
54919;SDS011;63804;53.120;8.764;2023-05-07T01:08:44;14.40;;;11.43;;
54919;SDS011;63804;53.120;8.764;2023-05-07T01:11:12;14.13;;;11.00;;
54919;SDS011;63804;53.120;8.764;2023-05-07T01:13:40;15.20;;;11.65;;
54919;SDS011;63804;53.120;8.764;2023-05-07T01:16:08;15.35;;;11.90;;
54919;SDS011;63804;53.120;8.764;2023-05-07T01:18:36;14.02;;;11.30;;
54919;SDS011;63804;53.120;8.764;2023-05-07T01:21:04;16.38;;;11.80;;
54919;SDS011;63804;53.120;8.764;2023-05-07T01:23:32;14.65;;;11.30;;
54919;SDS011;63804;53.120;8.764;2023-05-07T01:26:02;16.58;;;11.77;;
54919;SDS011;63804;53.120;8.764;2023-05-07T01:28:29;15.60;;;12.10;;
54919;SDS011;63804;53.120;8.764;2023-05-07T01:30:59;15.95;;;13.05;;
54919;SDS011;63804;53.120;8.764;2023-05-07T01:33:29;15.77;;;11.70;;
54919;SDS011;63804;53.120;8.764;2023-05-07T01:36:00;15.30;;;12.30;;
54919;SDS011;63804;53.120;8.764;2023-05-07T01:38:30;15.60;;;12.13;;
54919;SDS011;63804;53.120;8.764;2023-05-07T01:40:58;15.75;;;11.68;;
54919;SDS011;63804;53.120;8.764;2023-05-07T01:43:25;14.73;;;11.38;;
54919;SDS011;63804;53.120;8.764;2023-05-07T01:45:52;16.85;;;11.93;;
54919;SDS011;63804;53.120;8.764;2023-05-07T01:48:20;14.95;;;11.43;;
54919;SDS011;63804;53.120;8.764;2023-05-07T01:50:47;14.65;;;10.98;;
54919;SDS011;63804;53.120;8.764;2023-05-07T01:53:15;14.48;;;10.98;;
54919;SDS011;63804;53.120;8.764;2023-05-07T01:55:42;15.60;;;11.27;;
54919;SDS011;63804;53.120;8.764;2023-05-07T01:58:10;14.82;;;11.27;;
54919;SDS011;63804;53.120;8.764;2023-05-07T02:00:37;15.48;;;11.00;;
54919;SDS011;63804;53.120;8.764;2023-05-07T02:03:04;14.70;;;10.82;;
54919;SDS011;63804;53.120;8.764;2023-05-07T02:05:32;16.30;;;11.48;;
54919;SDS011;63804;53.120;8.764;2023-05-07T02:07:59;14.30;;;10.38;;
54919;SDS011;63804;53.120;8.764;2023-05-07T02:10:27;16.15;;;11.32;;
54919;SDS011;63804;53.120;8.764;2023-05-07T02:12:54;14.98;;;11.50;;
54919;SDS011;63804;53.120;8.764;2023-05-07T02:15:21;15.02;;;11.00;;
54919;SDS011;63804;53.120;8.764;2023-05-07T02:18:04;15.20;;;11.02;;
54919;SDS011;63804;53.120;8.764;2023-05-07T02:20:35;16.15;;;10.93;;
54919;SDS011;63804;53.120;8.764;2023-05-07T02:23:03;15.73;;;10.95;;
54919;SDS011;63804;53.120;8.764;2023-05-07T02:25:30;15.55;;;11.10;;
54919;SDS011;63804;53.120;8.764;2023-05-07T02:27:57;15.55;;;10.38;;
54919;SDS011;63804;53.120;8.764;2023-05-07T02:30:25;14.45;;;10.35;;
54919;SDS011;63804;53.120;8.764;2023-05-07T02:32:52;15.18;;;10.35;;
54919;SDS011;63804;53.120;8.764;2023-05-07T02:35:19;15.15;;;10.52;;
54919;SDS011;63804;53.120;8.764;2023-05-07T02:37:46;14.55;;;10.77;;
54919;SDS011;63804;53.120;8.764;2023-05-07T02:40:14;16.15;;;11.65;;
54919;SDS011;63804;53.120;8.764;2023-05-07T02:42:41;16.42;;;12.00;;
54919;SDS011;63804;53.120;8.764;2023-05-07T02:45:08;15.95;;;11.50;;
54919;SDS011;63804;53.120;8.764;2023-05-07T02:47:36;15.98;;;11.40;;
54919;SDS011;63804;53.120;8.764;2023-05-07T02:50:03;17.00;;;11.82;;
54919;SDS011;63804;53.120;8.764;2023-05-07T02:52:30;16.83;;;11.38;;
54919;SDS011;63804;53.120;8.764;2023-05-07T02:54:58;15.57;;;11.65;;
54919;SDS011;63804;53.120;8.764;2023-05-07T02:57:25;15.80;;;11.70;;
54919;SDS011;63804;53.120;8.764;2023-05-07T02:59:52;16.58;;;11.68;;
54919;SDS011;63804;53.120;8.764;2023-05-07T03:02:19;17.85;;;12.13;;
54919;SDS011;63804;53.120;8.764;2023-05-07T03:04:46;15.73;;;11.43;;
54919;SDS011;63804;53.120;8.764;2023-05-07T03:07:14;15.40;;;11.45;;
54919;SDS011;63804;53.120;8.764;2023-05-07T03:09:41;16.40;;;12.07;;
54919;SDS011;63804;53.120;8.764;2023-05-07T03:12:08;18.23;;;12.15;;
54919;SDS011;63804;53.120;8.764;2023-05-07T03:14:35;14.88;;;10.55;;
54919;SDS011;63804;53.120;8.764;2023-05-07T03:17:02;15.40;;;11.20;;
54919;SDS011;63804;53.120;8.764;2023-05-07T03:19:30;16.80;;;11.88;;
54919;SDS011;63804;53.120;8.764;2023-05-07T03:21:57;15.38;;;11.43;;
54919;SDS011;63804;53.120;8.764;2023-05-07T03:24:24;18.10;;;12.20;;
54919;SDS011;63804;53.120;8.764;2023-05-07T03:26:51;15.50;;;11.23;;
54919;SDS011;63804;53.120;8.764;2023-05-07T03:29:19;15.65;;;11.63;;
54919;SDS011;63804;53.120;8.764;2023-05-07T03:31:46;16.52;;;11.48;;
54919;SDS011;63804;53.120;8.764;2023-05-07T03:34:13;15.68;;;11.00;;
54919;SDS011;63804;53.120;8.764;2023-05-07T03:36:40;16.38;;;11.40;;
54919;SDS011;63804;53.120;8.764;2023-05-07T03:39:07;17.13;;;11.77;;
54919;SDS011;63804;53.120;8.764;2023-05-07T03:41:35;17.45;;;11.77;;
54919;SDS011;63804;53.120;8.764;2023-05-07T03:44:02;16.27;;;11.70;;
54919;SDS011;63804;53.120;8.764;2023-05-07T03:46:29;15.73;;;11.60;;
54919;SDS011;63804;53.120;8.764;2023-05-07T03:48:56;16.67;;;10.45;;
54919;SDS011;63804;53.120;8.764;2023-05-07T03:51:24;16.02;;;11.25;;
54919;SDS011;63804;53.120;8.764;2023-05-07T03:53:52;15.02;;;10.77;;
54919;SDS011;63804;53.120;8.764;2023-05-07T03:56:23;15.48;;;10.93;;
54919;SDS011;63804;53.120;8.764;2023-05-07T03:58:53;16.38;;;12.18;;
54919;SDS011;63804;53.120;8.764;2023-05-07T04:01:20;14.93;;;11.20;;
54919;SDS011;63804;53.120;8.764;2023-05-07T04:03:48;13.45;;;9.88;;
54919;SDS011;63804;53.120;8.764;2023-05-07T04:06:15;16.33;;;10.82;;
54919;SDS011;63804;53.120;8.764;2023-05-07T04:08:44;14.50;;;10.25;;
54919;SDS011;63804;53.120;8.764;2023-05-07T04:11:11;14.25;;;10.38;;
54919;SDS011;63804;53.120;8.764;2023-05-07T04:13:38;15.30;;;11.45;;
54919;SDS011;63804;53.120;8.764;2023-05-07T04:16:05;16.23;;;11.70;;
54919;SDS011;63804;53.120;8.764;2023-05-07T04:18:33;15.57;;;11.15;;
54919;SDS011;63804;53.120;8.764;2023-05-07T04:21:00;14.88;;;10.95;;
54919;SDS011;63804;53.120;8.764;2023-05-07T04:23:27;14.40;;;10.52;;
54919;SDS011;63804;53.120;8.764;2023-05-07T04:25:54;14.50;;;10.60;;
54919;SDS011;63804;53.120;8.764;2023-05-07T04:28:22;14.32;;;10.63;;
54919;SDS011;63804;53.120;8.764;2023-05-07T04:30:52;13.63;;;9.63;;
54919;SDS011;63804;53.120;8.764;2023-05-07T04:33:19;13.45;;;10.23;;
54919;SDS011;63804;53.120;8.764;2023-05-07T04:35:46;15.73;;;10.98;;
54919;SDS011;63804;53.120;8.764;2023-05-07T04:38:13;14.35;;;10.48;;
54919;SDS011;63804;53.120;8.764;2023-05-07T04:40:40;16.63;;;10.90;;
54919;SDS011;63804;53.120;8.764;2023-05-07T04:43:07;17.52;;;11.27;;
54919;SDS011;63804;53.120;8.764;2023-05-07T04:45:36;14.55;;;10.23;;
54919;SDS011;63804;53.120;8.764;2023-05-07T04:48:03;15.07;;;11.00;;
54919;SDS011;63804;53.120;8.764;2023-05-07T04:50:31;19.02;;;12.00;;
54919;SDS011;63804;53.120;8.764;2023-05-07T04:52:58;14.48;;;10.52;;
54919;SDS011;63804;53.120;8.764;2023-05-07T04:55:25;14.13;;;10.07;;
54919;SDS011;63804;53.120;8.764;2023-05-07T04:57:52;25.55;;;10.27;;
54919;SDS011;63804;53.120;8.764;2023-05-07T05:00:19;13.05;;;9.25;;
54919;SDS011;63804;53.120;8.764;2023-05-07T05:02:46;14.43;;;9.15;;
54919;SDS011;63804;53.120;8.764;2023-05-07T05:05:13;14.43;;;9.15;;
54919;SDS011;63804;53.120;8.764;2023-05-07T05:07:40;12.93;;;9.40;;
54919;SDS011;63804;53.120;8.764;2023-05-07T05:10:07;14.20;;;9.32;;
54919;SDS011;63804;53.120;8.764;2023-05-07T05:12:35;13.27;;;8.85;;
54919;SDS011;63804;53.120;8.764;2023-05-07T05:15:02;12.75;;;8.75;;
54919;SDS011;63804;53.120;8.764;2023-05-07T05:17:30;12.98;;;9.48;;
54919;SDS011;63804;53.120;8.764;2023-05-07T05:19:57;12.20;;;8.63;;
54919;SDS011;63804;53.120;8.764;2023-05-07T05:22:24;12.70;;;8.70;;
54919;SDS011;63804;53.120;8.764;2023-05-07T05:24:52;13.13;;;9.18;;
54919;SDS011;63804;53.120;8.764;2023-05-07T05:27:19;12.95;;;9.30;;
54919;SDS011;63804;53.120;8.764;2023-05-07T05:29:46;12.13;;;8.85;;
54919;SDS011;63804;53.120;8.764;2023-05-07T05:32:13;14.85;;;8.77;;
54919;SDS011;63804;53.120;8.764;2023-05-07T05:34:40;12.68;;;8.60;;
54919;SDS011;63804;53.120;8.764;2023-05-07T05:37:08;13.15;;;9.45;;
54919;SDS011;63804;53.120;8.764;2023-05-07T05:39:35;11.07;;;8.52;;
54919;SDS011;63804;53.120;8.764;2023-05-07T05:42:02;13.18;;;9.05;;
54919;SDS011;63804;53.120;8.764;2023-05-07T05:44:30;11.48;;;8.13;;
54919;SDS011;63804;53.120;8.764;2023-05-07T05:46:57;10.98;;;7.95;;
54919;SDS011;63804;53.120;8.764;2023-05-07T05:49:25;12.13;;;7.47;;
54919;SDS011;63804;53.120;8.764;2023-05-07T05:51:52;10.85;;;7.63;;
54919;SDS011;63804;53.120;8.764;2023-05-07T05:54:19;11.48;;;7.53;;
54919;SDS011;63804;53.120;8.764;2023-05-07T05:56:46;12.52;;;7.90;;
54919;SDS011;63804;53.120;8.764;2023-05-07T05:59:14;12.45;;;8.05;;
54919;SDS011;63804;53.120;8.764;2023-05-07T06:01:41;12.02;;;7.95;;
54919;SDS011;63804;53.120;8.764;2023-05-07T06:04:08;11.35;;;8.10;;
54919;SDS011;63804;53.120;8.764;2023-05-07T06:06:35;10.23;;;7.40;;
54919;SDS011;63804;53.120;8.764;2023-05-07T06:09:02;10.52;;;7.28;;
54919;SDS011;63804;53.120;8.764;2023-05-07T06:11:30;11.23;;;7.85;;
54919;SDS011;63804;53.120;8.764;2023-05-07T06:13:58;11.43;;;7.10;;
54919;SDS011;63804;53.120;8.764;2023-05-07T06:16:25;10.43;;;7.28;;
54919;SDS011;63804;53.120;8.764;2023-05-07T06:18:52;10.23;;;6.72;;
54919;SDS011;63804;53.120;8.764;2023-05-07T06:21:19;10.35;;;6.85;;
54919;SDS011;63804;53.120;8.764;2023-05-07T06:23:47;8.85;;;6.22;;
54919;SDS011;63804;53.120;8.764;2023-05-07T06:26:14;10.00;;;6.38;;
54919;SDS011;63804;53.120;8.764;2023-05-07T06:28:41;9.43;;;6.13;;
54919;SDS011;63804;53.120;8.764;2023-05-07T06:31:11;10.55;;;6.28;;
54919;SDS011;63804;53.120;8.764;2023-05-07T06:33:43;10.88;;;6.53;;
54919;SDS011;63804;53.120;8.764;2023-05-07T06:36:11;8.98;;;6.10;;
54919;SDS011;63804;53.120;8.764;2023-05-07T06:38:39;9.00;;;6.07;;
54919;SDS011;63804;53.120;8.764;2023-05-07T06:41:06;8.75;;;5.80;;
54919;SDS011;63804;53.120;8.764;2023-05-07T06:43:33;8.30;;;5.60;;
54919;SDS011;63804;53.120;8.764;2023-05-07T06:46:00;8.50;;;5.78;;
54919;SDS011;63804;53.120;8.764;2023-05-07T06:48:28;8.65;;;5.65;;
54919;SDS011;63804;53.120;8.764;2023-05-07T06:50:55;10.07;;;5.93;;
54919;SDS011;63804;53.120;8.764;2023-05-07T06:53:24;7.85;;;5.47;;
54919;SDS011;63804;53.120;8.764;2023-05-07T06:55:52;8.93;;;5.70;;
54919;SDS011;63804;53.120;8.764;2023-05-07T06:58:19;8.20;;;6.05;;
54919;SDS011;63804;53.120;8.764;2023-05-07T07:00:46;8.88;;;5.90;;
54919;SDS011;63804;53.120;8.764;2023-05-07T07:03:14;9.07;;;6.25;;
54919;SDS011;63804;53.120;8.764;2023-05-07T07:05:41;9.05;;;5.82;;
54919;SDS011;63804;53.120;8.764;2023-05-07T07:08:09;8.82;;;5.47;;
54919;SDS011;63804;53.120;8.764;2023-05-07T07:10:36;9.02;;;6.05;;
54919;SDS011;63804;53.120;8.764;2023-05-07T07:13:04;9.35;;;5.65;;
54919;SDS011;63804;53.120;8.764;2023-05-07T07:15:31;8.60;;;5.70;;
54919;SDS011;63804;53.120;8.764;2023-05-07T07:17:58;8.40;;;5.10;;
54919;SDS011;63804;53.120;8.764;2023-05-07T07:20:26;7.60;;;5.00;;
54919;SDS011;63804;53.120;8.764;2023-05-07T07:22:53;8.70;;;5.60;;
54919;SDS011;63804;53.120;8.764;2023-05-07T07:25:20;9.00;;;5.60;;
54919;SDS011;63804;53.120;8.764;2023-05-07T07:27:47;7.53;;;5.45;;
54919;SDS011;63804;53.120;8.764;2023-05-07T07:30:14;8.50;;;5.80;;
54919;SDS011;63804;53.120;8.764;2023-05-07T07:32:41;14.48;;;8.82;;
54919;SDS011;63804;53.120;8.764;2023-05-07T07:35:09;12.63;;;8.63;;
54919;SDS011;63804;53.120;8.764;2023-05-07T07:37:36;12.38;;;8.80;;
54919;SDS011;63804;53.120;8.764;2023-05-07T07:40:04;9.35;;;6.53;;
54919;SDS011;63804;53.120;8.764;2023-05-07T07:42:31;9.57;;;6.70;;
54919;SDS011;63804;53.120;8.764;2023-05-07T07:45:01;9.85;;;6.25;;
54919;SDS011;63804;53.120;8.764;2023-05-07T07:47:28;9.32;;;6.30;;
54919;SDS011;63804;53.120;8.764;2023-05-07T07:49:55;9.07;;;6.30;;
54919;SDS011;63804;53.120;8.764;2023-05-07T07:52:22;8.07;;;5.72;;
54919;SDS011;63804;53.120;8.764;2023-05-07T07:54:49;11.55;;;9.95;;
54919;SDS011;63804;53.120;8.764;2023-05-07T07:57:16;9.02;;;6.60;;
54919;SDS011;63804;53.120;8.764;2023-05-07T07:59:43;17.95;;;6.38;;
54919;SDS011;63804;53.120;8.764;2023-05-07T08:02:10;9.57;;;5.90;;
54919;SDS011;63804;53.120;8.764;2023-05-07T08:04:37;8.85;;;5.93;;
54919;SDS011;63804;53.120;8.764;2023-05-07T08:07:04;7.85;;;5.55;;
54919;SDS011;63804;53.120;8.764;2023-05-07T08:09:32;7.95;;;5.25;;
54919;SDS011;63804;53.120;8.764;2023-05-07T08:11:59;8.38;;;5.55;;
54919;SDS011;63804;53.120;8.764;2023-05-07T08:14:27;7.80;;;5.28;;
54919;SDS011;63804;53.120;8.764;2023-05-07T08:16:55;7.55;;;5.32;;
54919;SDS011;63804;53.120;8.764;2023-05-07T08:19:22;8.30;;;5.72;;
54919;SDS011;63804;53.120;8.764;2023-05-07T08:21:49;8.43;;;5.53;;
54919;SDS011;63804;53.120;8.764;2023-05-07T08:24:17;8.07;;;5.78;;
54919;SDS011;63804;53.120;8.764;2023-05-07T08:26:44;7.78;;;5.07;;
54919;SDS011;63804;53.120;8.764;2023-05-07T08:29:13;9.73;;;5.90;;
54919;SDS011;63804;53.120;8.764;2023-05-07T08:31:40;7.28;;;5.30;;
54919;SDS011;63804;53.120;8.764;2023-05-07T08:34:08;8.65;;;5.18;;
54919;SDS011;63804;53.120;8.764;2023-05-07T08:36:35;7.68;;;5.22;;
54919;SDS011;63804;53.120;8.764;2023-05-07T08:39:02;6.95;;;4.80;;
54919;SDS011;63804;53.120;8.764;2023-05-07T08:41:30;7.82;;;5.32;;
54919;SDS011;63804;53.120;8.764;2023-05-07T08:43:58;7.63;;;4.90;;
54919;SDS011;63804;53.120;8.764;2023-05-07T08:46:26;8.55;;;5.05;;
54919;SDS011;63804;53.120;8.764;2023-05-07T08:48:58;7.53;;;4.90;;
54919;SDS011;63804;53.120;8.764;2023-05-07T08:51:25;8.98;;;5.53;;
54919;SDS011;63804;53.120;8.764;2023-05-07T08:53:53;9.05;;;5.18;;
54919;SDS011;63804;53.120;8.764;2023-05-07T08:56:20;7.85;;;4.82;;
54919;SDS011;63804;53.120;8.764;2023-05-07T08:58:51;7.18;;;4.85;;
54919;SDS011;63804;53.120;8.764;2023-05-07T09:01:18;9.27;;;5.03;;
54919;SDS011;63804;53.120;8.764;2023-05-07T09:03:45;7.60;;;5.10;;
54919;SDS011;63804;53.120;8.764;2023-05-07T09:06:13;8.10;;;5.00;;
54919;SDS011;63804;53.120;8.764;2023-05-07T09:08:43;8.38;;;5.40;;
54919;SDS011;63804;53.120;8.764;2023-05-07T09:11:16;8.60;;;6.00;;
54919;SDS011;63804;53.120;8.764;2023-05-07T09:13:43;19.67;;;7.90;;
54919;SDS011;63804;53.120;8.764;2023-05-07T09:16:10;9.30;;;6.70;;
54919;SDS011;63804;53.120;8.764;2023-05-07T09:18:42;8.80;;;5.80;;
54919;SDS011;63804;53.120;8.764;2023-05-07T09:21:10;8.15;;;4.80;;
54919;SDS011;63804;53.120;8.764;2023-05-07T09:23:41;9.38;;;5.47;;
54919;SDS011;63804;53.120;8.764;2023-05-07T09:26:08;7.60;;;5.13;;
54919;SDS011;63804;53.120;8.764;2023-05-07T09:28:39;8.13;;;5.43;;
54919;SDS011;63804;53.120;8.764;2023-05-07T09:31:08;7.45;;;4.97;;
54919;SDS011;63804;53.120;8.764;2023-05-07T09:33:36;9.20;;;5.03;;
54919;SDS011;63804;53.120;8.764;2023-05-07T09:36:07;9.07;;;5.80;;
54919;SDS011;63804;53.120;8.764;2023-05-07T09:38:36;8.95;;;5.35;;
54919;SDS011;63804;53.120;8.764;2023-05-07T09:41:11;8.63;;;5.55;;
54919;SDS011;63804;53.120;8.764;2023-05-07T09:43:39;9.70;;;5.82;;
54919;SDS011;63804;53.120;8.764;2023-05-07T09:46:16;9.77;;;5.85;;
54919;SDS011;63804;53.120;8.764;2023-05-07T09:48:47;12.00;;;7.35;;
54919;SDS011;63804;53.120;8.764;2023-05-07T09:54:18;8.43;;;5.72;;
54919;SDS011;63804;53.120;8.764;2023-05-07T09:56:46;9.73;;;6.25;;
54919;SDS011;63804;53.120;8.764;2023-05-07T09:59:15;12.27;;;7.53;;
54919;SDS011;63804;53.120;8.764;2023-05-07T10:01:43;10.50;;;7.22;;
54919;SDS011;63804;53.120;8.764;2023-05-07T10:04:11;10.07;;;6.32;;
54919;SDS011;63804;53.120;8.764;2023-05-07T10:06:39;11.38;;;6.28;;
54919;SDS011;63804;53.120;8.764;2023-05-07T10:09:07;8.30;;;6.03;;
54919;SDS011;63804;53.120;8.764;2023-05-07T10:11:35;9.02;;;5.88;;
54919;SDS011;63804;53.120;8.764;2023-05-07T10:14:03;9.20;;;6.05;;
54919;SDS011;63804;53.120;8.764;2023-05-07T10:16:32;9.82;;;6.28;;
54919;SDS011;63804;53.120;8.764;2023-05-07T10:19:03;9.73;;;6.18;;
54919;SDS011;63804;53.120;8.764;2023-05-07T10:21:33;10.32;;;6.68;;
54919;SDS011;63804;53.120;8.764;2023-05-07T10:24:10;10.20;;;7.00;;
54919;SDS011;63804;53.120;8.764;2023-05-07T10:26:48;9.43;;;5.85;;
54919;SDS011;63804;53.120;8.764;2023-05-07T10:30:05;9.77;;;6.35;;
54919;SDS011;63804;53.120;8.764;2023-05-07T10:34:58;9.52;;;6.32;;
54919;SDS011;63804;53.120;8.764;2023-05-07T10:37:28;9.98;;;6.45;;
54919;SDS011;63804;53.120;8.764;2023-05-07T10:39:56;10.30;;;6.93;;
54919;SDS011;63804;53.120;8.764;2023-05-07T10:42:24;10.25;;;6.90;;
54919;SDS011;63804;53.120;8.764;2023-05-07T10:44:51;10.23;;;7.50;;
54919;SDS011;63804;53.120;8.764;2023-05-07T10:47:18;10.52;;;7.22;;
54919;SDS011;63804;53.120;8.764;2023-05-07T10:54:44;10.07;;;6.80;;
54919;SDS011;63804;53.120;8.764;2023-05-07T10:59:57;10.52;;;7.10;;
54919;SDS011;63804;53.120;8.764;2023-05-07T11:03:04;10.57;;;6.93;;
54919;SDS011;63804;53.120;8.764;2023-05-07T11:05:41;10.95;;;6.95;;
54919;SDS011;63804;53.120;8.764;2023-05-07T11:08:09;9.45;;;6.60;;
54919;SDS011;63804;53.120;8.764;2023-05-07T11:16:16;11.32;;;7.15;;
54919;SDS011;63804;53.120;8.764;2023-05-07T11:18:51;13.90;;;8.68;;
54919;SDS011;63804;53.120;8.764;2023-05-07T11:21:31;11.85;;;7.20;;
54919;SDS011;63804;53.120;8.764;2023-05-07T11:24:00;10.68;;;7.65;;
54919;SDS011;63804;53.120;8.764;2023-05-07T11:26:29;11.77;;;6.85;;
54919;SDS011;63804;53.120;8.764;2023-05-07T11:28:57;8.73;;;6.00;;
54919;SDS011;63804;53.120;8.764;2023-05-07T11:31:27;9.38;;;6.57;;
54919;SDS011;63804;53.120;8.764;2023-05-07T11:33:56;9.00;;;6.60;;
54919;SDS011;63804;53.120;8.764;2023-05-07T11:36:24;8.98;;;6.60;;
54919;SDS011;63804;53.120;8.764;2023-05-07T11:38:51;9.88;;;6.60;;
54919;SDS011;63804;53.120;8.764;2023-05-07T11:41:18;8.65;;;6.22;;
54919;SDS011;63804;53.120;8.764;2023-05-07T11:43:54;10.15;;;6.90;;
54919;SDS011;63804;53.120;8.764;2023-05-07T11:46:22;10.40;;;6.30;;
54919;SDS011;63804;53.120;8.764;2023-05-07T11:48:50;9.35;;;6.43;;
54919;SDS011;63804;53.120;8.764;2023-05-07T11:51:21;9.20;;;6.40;;
54919;SDS011;63804;53.120;8.764;2023-05-07T11:53:50;9.23;;;6.60;;
54919;SDS011;63804;53.120;8.764;2023-05-07T11:56:17;8.95;;;6.20;;
54919;SDS011;63804;53.120;8.764;2023-05-07T11:58:46;9.23;;;6.43;;
54919;SDS011;63804;53.120;8.764;2023-05-07T12:01:14;9.48;;;5.93;;
54919;SDS011;63804;53.120;8.764;2023-05-07T12:03:43;10.88;;;7.22;;
54919;SDS011;63804;53.120;8.764;2023-05-07T12:06:16;16.73;;;13.32;;
54919;SDS011;63804;53.120;8.764;2023-05-07T12:08:44;10.38;;;7.45;;
54919;SDS011;63804;53.120;8.764;2023-05-07T12:11:15;9.80;;;6.97;;
54919;SDS011;63804;53.120;8.764;2023-05-07T12:13:45;8.80;;;6.22;;
54919;SDS011;63804;53.120;8.764;2023-05-07T12:16:12;9.85;;;6.50;;
54919;SDS011;63804;53.120;8.764;2023-05-07T12:18:39;11.43;;;6.63;;
54919;SDS011;63804;53.120;8.764;2023-05-07T12:21:07;8.77;;;6.82;;
54919;SDS011;63804;53.120;8.764;2023-05-07T12:23:35;9.70;;;6.68;;
54919;SDS011;63804;53.120;8.764;2023-05-07T12:26:03;9.82;;;6.40;;
54919;SDS011;63804;53.120;8.764;2023-05-07T12:28:36;9.57;;;6.18;;
54919;SDS011;63804;53.120;8.764;2023-05-07T12:31:05;11.75;;;7.18;;
54919;SDS011;63804;53.120;8.764;2023-05-07T12:33:33;10.40;;;6.00;;
54919;SDS011;63804;53.120;8.764;2023-05-07T12:36:05;8.23;;;5.70;;
54919;SDS011;63804;53.120;8.764;2023-05-07T12:38:39;9.57;;;6.30;;
54919;SDS011;63804;53.120;8.764;2023-05-07T12:43:39;10.25;;;5.90;;
54919;SDS011;63804;53.120;8.764;2023-05-07T12:46:06;9.45;;;6.07;;
54919;SDS011;63804;53.120;8.764;2023-05-07T12:48:38;8.30;;;5.05;;
54919;SDS011;63804;53.120;8.764;2023-05-07T12:51:05;10.05;;;5.57;;
54919;SDS011;63804;53.120;8.764;2023-05-07T12:53:34;7.45;;;5.43;;
54919;SDS011;63804;53.120;8.764;2023-05-07T12:56:07;8.50;;;5.97;;
54919;SDS011;63804;53.120;8.764;2023-05-07T12:58:34;8.88;;;5.70;;
54919;SDS011;63804;53.120;8.764;2023-05-07T13:01:04;8.48;;;5.47;;
54919;SDS011;63804;53.120;8.764;2023-05-07T13:03:34;9.10;;;5.18;;
54919;SDS011;63804;53.120;8.764;2023-05-07T13:06:03;9.85;;;5.50;;
54919;SDS011;63804;53.120;8.764;2023-05-07T13:08:37;8.45;;;5.90;;
54919;SDS011;63804;53.120;8.764;2023-05-07T13:11:07;8.85;;;5.20;;
54919;SDS011;63804;53.120;8.764;2023-05-07T13:13:35;8.07;;;5.00;;
54919;SDS011;63804;53.120;8.764;2023-05-07T13:16:03;6.85;;;4.63;;
54919;SDS011;63804;53.120;8.764;2023-05-07T13:18:31;7.65;;;4.82;;
54919;SDS011;63804;53.120;8.764;2023-05-07T13:20:59;7.30;;;4.40;;
54919;SDS011;63804;53.120;8.764;2023-05-07T13:23:27;8.27;;;4.80;;
54919;SDS011;63804;53.120;8.764;2023-05-07T13:25:55;7.32;;;4.68;;
54919;SDS011;63804;53.120;8.764;2023-05-07T13:28:23;8.00;;;4.70;;
54919;SDS011;63804;53.120;8.764;2023-05-07T13:30:51;6.97;;;4.80;;
54919;SDS011;63804;53.120;8.764;2023-05-07T13:33:19;7.80;;;4.38;;
54919;SDS011;63804;53.120;8.764;2023-05-07T13:35:46;6.60;;;4.40;;
54919;SDS011;63804;53.120;8.764;2023-05-07T13:38:13;7.03;;;4.43;;
54919;SDS011;63804;53.120;8.764;2023-05-07T13:40:42;6.78;;;4.30;;
54919;SDS011;63804;53.120;8.764;2023-05-07T13:43:09;8.32;;;4.30;;
54919;SDS011;63804;53.120;8.764;2023-05-07T13:45:37;6.40;;;4.20;;
54919;SDS011;63804;53.120;8.764;2023-05-07T13:48:04;5.70;;;4.00;;
54919;SDS011;63804;53.120;8.764;2023-05-07T13:50:31;6.45;;;3.92;;
54919;SDS011;63804;53.120;8.764;2023-05-07T13:52:58;6.30;;;4.32;;
54919;SDS011;63804;53.120;8.764;2023-05-07T13:55:25;6.63;;;3.65;;
54919;SDS011;63804;53.120;8.764;2023-05-07T13:57:56;6.22;;;3.80;;
54919;SDS011;63804;53.120;8.764;2023-05-07T14:00:25;7.57;;;4.28;;
54919;SDS011;63804;53.120;8.764;2023-05-07T14:02:53;5.82;;;3.70;;
54919;SDS011;63804;53.120;8.764;2023-05-07T14:05:21;6.53;;;4.05;;
54919;SDS011;63804;53.120;8.764;2023-05-07T14:07:54;6.45;;;4.60;;
54919;SDS011;63804;53.120;8.764;2023-05-07T14:10:23;7.13;;;4.22;;
54919;SDS011;63804;53.120;8.764;2023-05-07T14:12:51;7.28;;;4.30;;
54919;SDS011;63804;53.120;8.764;2023-05-07T14:15:19;6.50;;;4.55;;
54919;SDS011;63804;53.120;8.764;2023-05-07T14:17:46;6.05;;;4.07;;
54919;SDS011;63804;53.120;8.764;2023-05-07T14:20:13;6.38;;;4.30;;
54919;SDS011;63804;53.120;8.764;2023-05-07T14:22:41;6.72;;;4.18;;
54919;SDS011;63804;53.120;8.764;2023-05-07T14:25:09;6.20;;;4.32;;
54919;SDS011;63804;53.120;8.764;2023-05-07T14:27:36;6.05;;;3.85;;
54919;SDS011;63804;53.120;8.764;2023-05-07T14:30:04;7.30;;;4.32;;
54919;SDS011;63804;53.120;8.764;2023-05-07T14:32:32;8.43;;;4.75;;
54919;SDS011;63804;53.120;8.764;2023-05-07T14:34:59;7.93;;;4.97;;
54919;SDS011;63804;53.120;8.764;2023-05-07T14:37:27;9.75;;;4.80;;
54919;SDS011;63804;53.120;8.764;2023-05-07T14:39:57;7.82;;;4.63;;
54919;SDS011;63804;53.120;8.764;2023-05-07T14:42:24;7.97;;;4.60;;
54919;SDS011;63804;53.120;8.764;2023-05-07T14:44:52;8.88;;;4.55;;
54919;SDS011;63804;53.120;8.764;2023-05-07T14:47:19;6.95;;;4.38;;
54919;SDS011;63804;53.120;8.764;2023-05-07T14:49:47;9.82;;;4.72;;
54919;SDS011;63804;53.120;8.764;2023-05-07T14:52:14;6.88;;;4.25;;
54919;SDS011;63804;53.120;8.764;2023-05-07T14:54:41;6.88;;;4.18;;
54919;SDS011;63804;53.120;8.764;2023-05-07T14:57:09;9.45;;;4.78;;
54919;SDS011;63804;53.120;8.764;2023-05-07T14:59:39;6.28;;;4.25;;
54919;SDS011;63804;53.120;8.764;2023-05-07T15:02:08;7.72;;;4.90;;
54919;SDS011;63804;53.120;8.764;2023-05-07T15:04:37;7.28;;;4.63;;